createdAt,value
2022-09-28T00:00:54.704Z,94.03
2022-09-28T00:03:26.334Z,94.22
2022-09-28T00:06:06.271Z,94.09
2022-09-28T00:08:37.647Z,94.09
2022-09-28T00:11:13.673Z,93.97
2022-09-28T00:13:48.336Z,94.10
2022-09-28T00:16:23.056Z,93.63
2022-09-28T00:18:55.299Z,94.24
2022-09-28T00:21:29.860Z,93.93
2022-09-28T00:24:25.271Z,94.23
2022-09-28T00:27:01.369Z,93.98
2022-09-28T00:29:35.275Z,94.15
2022-09-28T00:32:10.416Z,94.34
2022-09-28T00:34:45.783Z,93.95
2022-09-28T00:37:19.092Z,94.04
2022-09-28T00:39:50.602Z,94.13
2022-09-28T00:42:26.177Z,94.26
2022-09-28T00:44:58.933Z,94.50
2022-09-28T00:47:41.417Z,94.32
2022-09-28T00:50:30.054Z,93.99
2022-09-28T00:53:09.397Z,94.25
2022-09-28T00:55:46.512Z,94.58
2022-09-28T00:58:27.418Z,94.29
2022-09-28T01:00:59.941Z,94.36
2022-09-28T01:03:33.590Z,94.51
2022-09-28T01:06:07.428Z,94.48
2022-09-28T01:08:39.593Z,94.65
2022-09-28T01:11:10.855Z,94.37
2022-09-28T01:13:43.313Z,94.33
2022-09-28T01:16:26.924Z,94.28
2022-09-28T01:19:26.154Z,94.30
2022-09-28T01:22:27.447Z,94.20
2022-09-28T01:25:29.340Z,94.18
2022-09-28T01:28:28.758Z,94.20
2022-09-28T01:31:20.299Z,93.73
2022-09-28T01:33:58.789Z,93.90
2022-09-28T01:36:36.800Z,93.84
2022-09-28T01:39:16.538Z,94.15
2022-09-28T01:41:52.312Z,94.01
2022-09-28T01:44:25.938Z,94.04
2022-09-28T01:47:03.548Z,93.74
2022-09-28T01:49:41.208Z,94.04
2022-09-28T01:52:30.429Z,93.98
2022-09-28T01:55:07.773Z,94.04
2022-09-28T01:57:57.833Z,93.95
2022-09-28T02:00:29.385Z,94.25
2022-09-28T02:03:08.923Z,93.99
2022-09-28T02:05:47.002Z,94.46
2022-09-28T02:08:26.890Z,94.24
2022-09-28T02:11:05.881Z,94.12
2022-09-28T02:13:40.762Z,94.43
2022-09-28T02:16:41.297Z,94.73
2022-09-28T02:19:17.230Z,94.72
2022-09-28T02:22:07.173Z,94.90
2022-09-28T02:24:52.001Z,94.91
2022-09-28T02:27:34.638Z,95.31
2022-09-28T02:30:07.680Z,95.16
2022-09-28T02:32:42.981Z,95.57
2022-09-28T02:35:17.288Z,95.78
2022-09-28T02:37:49.752Z,95.87
2022-09-28T02:40:25.268Z,95.64
2022-09-28T02:43:15.390Z,95.74
2022-09-28T02:46:16.413Z,96.13
2022-09-28T02:49:27.633Z,96.01
2022-09-28T02:52:28.284Z,96.14
2022-09-28T02:55:05.413Z,96.27
2022-09-28T02:58:15.816Z,96.36
2022-09-28T03:01:21.424Z,96.45
2022-09-28T03:04:27.233Z,96.33
2022-09-28T03:07:05.920Z,96.19
2022-09-28T03:09:42.464Z,96.17
2022-09-28T03:12:17.690Z,96.34
2022-09-28T03:15:05.923Z,96.51
2022-09-28T03:17:38.039Z,96.04
2022-09-28T03:20:10.671Z,96.26
2022-09-28T03:22:42.175Z,96.19
2022-09-28T03:25:14.716Z,96.02
2022-09-28T03:27:46.240Z,95.95
2022-09-28T03:30:17.606Z,96.08
2022-09-28T03:32:58.055Z,95.90
2022-09-28T03:35:29.316Z,96.03
2022-09-28T03:38:00.649Z,96.02
2022-09-28T03:40:32.080Z,95.81
2022-09-28T03:43:03.406Z,95.90
2022-09-28T03:45:34.692Z,95.68
2022-09-28T03:48:06.036Z,95.78
2022-09-28T03:50:37.277Z,95.92
2022-09-28T03:53:08.716Z,95.58
2022-09-28T03:55:39.944Z,95.78
2022-09-28T03:58:11.246Z,95.79
2022-09-28T04:00:42.627Z,95.96
2022-09-28T04:03:14.039Z,95.95
2022-09-28T04:05:52.841Z,95.87
2022-09-28T04:08:24.278Z,95.76
2022-09-28T04:10:57.666Z,95.74
2022-09-28T04:13:30.118Z,95.71
2022-09-28T04:16:01.897Z,95.74
2022-09-28T04:18:33.664Z,95.49
2022-09-28T04:21:07.159Z,95.89
2022-09-28T04:23:39.998Z,95.55
2022-09-28T04:26:20.808Z,95.63
2022-09-28T04:29:10.892Z,95.75
2022-09-28T04:31:46.714Z,96.04
2022-09-28T04:34:20.598Z,96.21
2022-09-28T04:36:55.068Z,96.03
2022-09-28T04:39:26.307Z,95.81
2022-09-28T04:41:57.570Z,95.74
2022-09-28T04:44:28.861Z,95.82
2022-09-28T04:47:04.831Z,96.00
2022-09-28T04:49:38.233Z,96.22
2022-09-28T04:52:09.533Z,96.16
2022-09-28T04:54:40.938Z,96.06
2022-09-28T04:57:12.240Z,95.94
2022-09-28T04:59:43.717Z,96.11
2022-09-28T05:02:15.175Z,96.22
2022-09-28T05:04:46.644Z,96.27
2022-09-28T05:07:17.877Z,95.92
2022-09-28T05:09:49.172Z,96.00
2022-09-28T05:12:21.412Z,95.96
2022-09-28T05:14:52.666Z,96.38
2022-09-28T05:17:23.905Z,96.19
2022-09-28T05:19:55.149Z,96.21
2022-09-28T05:22:26.437Z,96.21
2022-09-28T05:24:59.016Z,95.92
2022-09-28T05:27:30.354Z,95.94
2022-09-28T05:30:01.729Z,96.23
2022-09-28T05:32:32.972Z,96.12
2022-09-28T05:35:06.178Z,96.23
2022-09-28T05:37:38.601Z,96.14
2022-09-28T05:40:10.660Z,96.39
2022-09-28T05:42:42.124Z,96.19
2022-09-28T05:45:13.493Z,96.01
2022-09-28T05:47:46.129Z,96.10
2022-09-28T05:50:17.530Z,96.27
2022-09-28T05:52:57.619Z,96.12
2022-09-28T05:55:29.663Z,96.67
2022-09-28T05:58:02.763Z,96.19
2022-09-28T06:00:35.723Z,96.04
2022-09-28T06:03:11.083Z,95.89
2022-09-28T06:05:42.372Z,96.18
2022-09-28T06:08:13.960Z,96.18
2022-09-28T06:10:45.389Z,96.00
2022-09-28T06:13:16.763Z,95.64
2022-09-28T06:15:48.083Z,95.94
2022-09-28T06:18:19.338Z,96.53
2022-09-28T06:20:50.600Z,96.62
2022-09-28T06:23:21.841Z,96.69
2022-09-28T06:25:53.068Z,96.40
2022-09-28T06:28:24.803Z,95.98
2022-09-28T06:30:56.094Z,96.50
2022-09-28T06:33:27.516Z,96.62
2022-09-28T06:35:59.539Z,96.95
2022-09-28T06:38:30.782Z,97.05
2022-09-28T06:41:02.080Z,97.01
2022-09-28T06:43:34.921Z,97.02
2022-09-28T06:46:08.443Z,97.02
2022-09-28T06:48:40.293Z,97.03
2022-09-28T06:51:11.619Z,96.97
2022-09-28T06:53:42.877Z,97.46
2022-09-28T06:56:14.357Z,96.88
2022-09-28T06:58:45.598Z,97.20
2022-09-28T07:01:16.976Z,97.07
2022-09-28T07:03:51.442Z,97.60
2022-09-28T07:06:26.613Z,97.73
2022-09-28T07:09:19.424Z,97.13
2022-09-28T07:11:52.559Z,97.72
2022-09-28T07:14:40.480Z,97.46
2022-09-28T07:17:16.448Z,97.59
2022-09-28T07:19:52.603Z,97.93
2022-09-28T07:22:39.030Z,97.72
2022-09-28T07:25:14.174Z,97.52
2022-09-28T07:27:47.015Z,97.14
2022-09-28T07:30:18.343Z,97.87
2022-09-28T07:32:49.599Z,97.28
2022-09-28T07:35:21.020Z,96.92
2022-09-28T07:38:00.316Z,97.27
2022-09-28T07:40:52.002Z,96.82
2022-09-28T07:43:23.686Z,96.46
2022-09-28T07:45:55.605Z,96.96
2022-09-28T07:48:26.927Z,97.23
2022-09-28T07:51:00.099Z,97.11
2022-09-28T07:53:31.683Z,97.13
2022-09-28T07:56:06.947Z,97.12
2022-09-28T07:58:39.400Z,96.63
2022-09-28T08:01:11.840Z,96.54
2022-09-28T08:03:47.966Z,96.49
2022-09-28T08:06:19.726Z,96.71
2022-09-28T08:08:52.745Z,97.00
2022-09-28T08:11:23.994Z,95.98
2022-09-28T08:13:55.344Z,96.31
2022-09-28T08:16:27.767Z,96.49
2022-09-28T08:18:59.106Z,96.45
2022-09-28T08:21:45.669Z,96.56
2022-09-28T08:24:17.984Z,96.80
2022-09-28T08:26:49.361Z,97.61
2022-09-28T08:29:20.646Z,97.69
2022-09-28T08:31:51.880Z,97.25
2022-09-28T08:34:23.165Z,96.82
2022-09-28T08:36:57.704Z,96.88
2022-09-28T08:39:29.053Z,96.65
2022-09-28T08:42:15.645Z,96.61
2022-09-28T08:44:55.681Z,96.86
2022-09-28T08:48:03.877Z,96.13
2022-09-28T08:50:51.242Z,96.60
2022-09-28T08:53:35.043Z,96.38
2022-09-28T08:56:14.752Z,96.25
2022-09-28T08:58:54.663Z,96.35
2022-09-28T09:01:31.358Z,96.08
2022-09-28T09:04:05.427Z,95.82
2022-09-28T09:06:45.131Z,95.66
2022-09-28T09:09:34.728Z,95.73
2022-09-28T09:12:41.413Z,95.06
2022-09-28T09:15:18.696Z,95.63
2022-09-28T09:18:22.318Z,95.73
2022-09-28T09:20:59.681Z,95.81
2022-09-28T09:23:39.056Z,95.34
2022-09-28T09:26:22.536Z,95.49
2022-09-28T09:29:23.759Z,95.81
2022-09-28T09:31:55.090Z,95.92
2022-09-28T09:34:46.486Z,95.17
2022-09-28T09:37:58.522Z,95.41
2022-09-28T09:40:52.807Z,95.20
2022-09-28T09:43:49.194Z,95.09
2022-09-28T09:46:44.261Z,94.88
2022-09-28T09:49:26.791Z,95.51
2022-09-28T09:52:18.679Z,95.74
2022-09-28T09:54:59.340Z,94.04
2022-09-28T09:57:40.848Z,95.06
2022-09-28T10:00:14.282Z,94.53
2022-09-28T10:02:48.173Z,94.79
2022-09-28T10:05:27.688Z,93.92
2022-09-28T10:08:15.474Z,94.03
2022-09-28T10:10:51.413Z,94.42
2022-09-28T10:13:23.177Z,94.63
2022-09-28T10:15:55.429Z,94.38
2022-09-28T10:18:27.710Z,92.89
2022-09-28T10:21:00.079Z,91.96
2022-09-28T10:23:35.921Z,92.62
2022-09-28T10:26:13.446Z,92.43
2022-09-28T10:28:58.782Z,92.19
2022-09-28T10:31:39.191Z,91.10
2022-09-28T10:34:16.954Z,91.07
2022-09-28T10:37:05.337Z,91.22
2022-09-28T10:39:46.000Z,90.64
2022-09-28T10:42:28.540Z,91.02
2022-09-28T10:45:07.073Z,91.34
2022-09-28T10:47:42.882Z,91.75
2022-09-28T10:50:22.513Z,92.31
2022-09-28T10:52:53.804Z,92.28
2022-09-28T10:55:36.750Z,91.99
2022-09-28T10:58:25.541Z,91.87
2022-09-28T11:01:04.961Z,91.65
2022-09-28T11:03:49.582Z,91.49
2022-09-28T11:06:29.781Z,91.29
2022-09-28T11:09:05.576Z,91.49
2022-09-28T11:11:41.556Z,90.72
2022-09-28T11:14:42.159Z,90.91
2022-09-28T11:17:27.739Z,90.00
2022-09-28T11:20:01.883Z,89.39
2022-09-28T11:22:33.079Z,89.17
2022-09-28T11:25:16.268Z,89.13
2022-09-28T11:27:50.592Z,89.97
2022-09-28T11:30:37.125Z,89.84
2022-09-28T11:33:19.039Z,90.52
2022-09-28T11:36:10.683Z,91.41
2022-09-28T11:39:09.072Z,91.53
2022-09-28T11:42:07.561Z,90.65
2022-09-28T11:44:44.727Z,90.26
2022-09-28T11:47:34.340Z,89.96
2022-09-28T11:50:24.726Z,89.64
2022-09-28T11:53:22.858Z,90.41
2022-09-28T11:56:12.712Z,90.71
2022-09-28T11:58:51.679Z,90.94
2022-09-28T12:01:40.108Z,90.68
2022-09-28T12:04:18.362Z,90.93
2022-09-28T12:06:55.585Z,90.45
2022-09-28T12:09:41.275Z,90.05
2022-09-28T12:12:32.298Z,90.69
2022-09-28T12:15:21.671Z,90.06
2022-09-28T12:18:00.129Z,89.30
2022-09-28T12:20:38.273Z,89.31
2022-09-28T12:23:21.073Z,89.60
2022-09-28T12:26:00.501Z,89.57
2022-09-28T12:28:56.768Z,88.93
2022-09-28T12:31:54.552Z,89.09
2022-09-28T12:34:26.109Z,89.76
2022-09-28T12:37:12.852Z,89.96
2022-09-28T12:40:08.862Z,89.78
2022-09-28T12:42:47.617Z,89.56
2022-09-28T12:46:11.682Z,89.33
2022-09-28T12:49:21.703Z,89.34
2022-09-28T12:51:54.311Z,89.86
2022-09-28T12:54:25.563Z,89.53
2022-09-28T12:57:18.493Z,89.42
2022-09-28T13:00:08.055Z,89.74
2022-09-28T13:03:06.580Z,89.39
2022-09-28T13:06:15.816Z,88.87
2022-09-28T13:09:14.861Z,88.79
2022-09-28T13:11:58.689Z,89.52
2022-09-28T13:15:08.690Z,89.25
2022-09-28T13:17:45.737Z,89.04
2022-09-28T13:20:32.260Z,87.97
2022-09-28T13:23:19.411Z,88.78
2022-09-28T13:26:10.872Z,89.03
2022-09-28T13:28:43.494Z,89.77
2022-09-28T13:31:20.232Z,89.40
2022-09-28T13:33:53.644Z,89.65
2022-09-28T13:36:24.908Z,89.74
2022-09-28T13:38:59.274Z,89.55
2022-09-28T13:41:40.280Z,88.85
2022-09-28T13:44:12.255Z,87.96
2022-09-28T13:47:13.037Z,88.12
2022-09-28T13:50:17.682Z,88.24
2022-09-28T13:53:01.208Z,88.31
2022-09-28T13:55:46.984Z,88.63
2022-09-28T13:58:51.932Z,87.52
2022-09-28T14:01:30.296Z,87.49
2022-09-28T14:04:23.981Z,86.59
2022-09-28T14:07:08.406Z,85.98
2022-09-28T14:10:07.738Z,85.15
2022-09-28T14:12:38.947Z,85.08
2022-09-28T14:15:28.548Z,83.74
2022-09-28T14:18:11.930Z,83.88
2022-09-28T14:20:57.472Z,83.96
2022-09-28T14:23:45.844Z,84.05
2022-09-28T14:26:41.480Z,83.60
2022-09-28T14:29:34.309Z,83.64
2022-09-28T14:32:08.642Z,83.38
2022-09-28T14:34:46.700Z,83.21
2022-09-28T14:37:58.042Z,82.63
2022-09-28T14:41:10.308Z,82.60
2022-09-28T14:43:44.339Z,82.60
2022-09-28T14:46:17.084Z,82.52
2022-09-28T14:49:01.654Z,81.54
2022-09-28T14:51:34.892Z,81.40
2022-09-28T14:54:12.221Z,81.08
2022-09-28T14:57:15.207Z,80.75
2022-09-28T14:59:47.686Z,81.43
2022-09-28T15:02:33.000Z,80.78
2022-09-28T15:05:22.887Z,80.36
2022-09-28T15:07:55.015Z,80.60
2022-09-28T15:10:36.602Z,80.01
2022-09-28T15:13:28.390Z,80.20
2022-09-28T15:16:06.444Z,80.47
2022-09-28T15:19:18.593Z,80.18
2022-09-28T15:21:51.149Z,80.33
2022-09-28T15:24:34.893Z,79.80
2022-09-28T15:27:18.844Z,80.28
2022-09-28T15:29:57.496Z,80.06
2022-09-28T15:32:31.629Z,80.25
2022-09-28T15:35:14.398Z,80.37
2022-09-28T15:37:49.576Z,80.77
2022-09-28T15:40:33.306Z,80.70
2022-09-28T15:43:26.890Z,80.58
2022-09-28T15:46:05.996Z,81.22
2022-09-28T15:48:51.804Z,81.10
2022-09-28T15:51:24.418Z,80.93
2022-09-28T15:54:04.464Z,80.96
2022-09-28T15:56:59.926Z,81.00
2022-09-28T15:59:39.606Z,80.99
2022-09-28T16:02:20.624Z,81.24
2022-09-28T16:04:55.127Z,81.27
2022-09-28T16:07:56.556Z,81.26
2022-09-28T16:10:33.947Z,81.59
2022-09-28T16:13:17.853Z,81.58
2022-09-28T16:15:57.941Z,81.65
2022-09-28T16:18:32.321Z,81.69
2022-09-28T16:21:28.904Z,81.64
2022-09-28T16:24:00.493Z,82.02
2022-09-28T16:26:38.877Z,82.14
2022-09-28T16:29:32.561Z,82.42
2022-09-28T16:32:35.313Z,82.48
2022-09-28T16:35:10.090Z,82.71
2022-09-28T16:37:42.504Z,83.05
2022-09-28T16:40:13.845Z,83.16
2022-09-28T16:42:49.060Z,83.16
2022-09-28T16:45:23.696Z,83.27
2022-09-28T16:47:57.344Z,83.48
2022-09-28T16:50:28.668Z,83.68
2022-09-28T16:53:38.803Z,83.83
2022-09-28T16:56:11.359Z,84.04
2022-09-28T16:58:42.729Z,84.06
2022-09-28T17:01:14.780Z,83.11
2022-09-28T17:03:47.339Z,84.40
2022-09-28T17:06:21.690Z,84.16
2022-09-28T17:08:58.270Z,84.32
2022-09-28T17:11:29.522Z,84.85
2022-09-28T17:14:03.736Z,84.77
2022-09-28T17:17:07.406Z,85.07
2022-09-28T17:19:28.683Z,84.76
2022-09-28T17:21:59.933Z,85.32
2022-09-28T17:24:31.179Z,84.96
2022-09-28T17:27:04.112Z,85.03
2022-09-28T17:29:35.357Z,85.17
2022-09-28T17:32:16.825Z,85.31
2022-09-28T17:34:55.791Z,85.95
2022-09-28T17:37:38.400Z,85.34
2022-09-28T17:40:28.141Z,85.55
2022-09-28T17:43:00.399Z,86.28
2022-09-28T17:45:33.380Z,86.13
2022-09-28T17:48:14.132Z,85.80
2022-09-28T17:50:47.581Z,86.07
2022-09-28T17:53:19.565Z,86.18
2022-09-28T17:55:51.332Z,86.55
2022-09-28T17:58:22.983Z,86.08
2022-09-28T18:00:54.231Z,86.69
2022-09-28T18:03:25.794Z,86.24
2022-09-28T18:06:12.978Z,86.79
2022-09-28T18:08:44.410Z,86.53
2022-09-28T18:11:17.296Z,86.35
2022-09-28T18:13:48.607Z,86.99
2022-09-28T18:16:20.349Z,86.58
2022-09-28T18:18:51.777Z,86.95
2022-09-28T18:21:23.230Z,87.10
2022-09-28T18:23:54.544Z,87.24
2022-09-28T18:26:25.926Z,86.88
2022-09-28T18:28:57.237Z,87.38
2022-09-28T18:31:28.626Z,86.84
2022-09-28T18:34:00.889Z,87.11
2022-09-28T18:36:35.555Z,86.98
2022-09-28T18:39:07.017Z,87.13
2022-09-28T18:41:38.582Z,87.22
2022-09-28T18:44:10.389Z,87.15
2022-09-28T18:46:42.539Z,87.26
2022-09-28T18:49:13.846Z,87.56
2022-09-28T18:51:45.141Z,87.10
2022-09-28T18:54:16.979Z,87.46
2022-09-28T18:56:51.077Z,87.15
2022-09-28T18:59:23.247Z,87.56
2022-09-28T19:01:54.764Z,87.32
2022-09-28T19:04:26.162Z,87.57
2022-09-28T19:06:57.505Z,87.10
2022-09-28T19:09:28.749Z,87.51
2022-09-28T19:12:00.754Z,87.57
2022-09-28T19:14:32.028Z,87.66
2022-09-28T19:17:04.224Z,87.42
2022-09-28T19:19:35.727Z,87.68
2022-09-28T19:22:07.042Z,87.24
2022-09-28T19:24:38.353Z,87.58
2022-09-28T19:27:09.671Z,87.58
2022-09-28T19:29:40.989Z,87.72
2022-09-28T19:32:12.593Z,87.66
2022-09-28T19:34:43.876Z,87.78
2022-09-28T19:37:15.258Z,87.59
2022-09-28T19:39:46.634Z,87.73
2022-09-28T19:42:17.877Z,87.59
2022-09-28T19:44:49.158Z,87.87
2022-09-28T19:47:21.597Z,87.88
2022-09-28T19:49:52.992Z,87.49
2022-09-28T19:52:24.285Z,87.46
2022-09-28T19:54:56.777Z,87.41
2022-09-28T19:57:31.624Z,87.85
2022-09-28T20:00:04.261Z,87.82
2022-09-28T20:02:35.596Z,87.75
2022-09-28T20:05:07.386Z,87.89
2022-09-28T20:07:39.701Z,87.63
2022-09-28T20:10:11.893Z,88.05
2022-09-28T20:12:43.222Z,88.04
2022-09-28T20:15:14.582Z,87.85
2022-09-28T20:17:45.881Z,87.88
2022-09-28T20:20:18.152Z,87.57
2022-09-28T20:22:49.393Z,87.91
2022-09-28T20:25:20.777Z,87.87
2022-09-28T20:27:52.120Z,87.70
2022-09-28T20:30:24.186Z,88.45
2022-09-28T20:32:55.545Z,87.93
2022-09-28T20:35:33.046Z,87.82
2022-09-28T20:38:08.940Z,87.50
2022-09-28T20:40:41.889Z,88.10
2022-09-28T20:43:14.429Z,88.07
2022-09-28T20:45:45.746Z,88.19
2022-09-28T20:48:17.015Z,88.00
2022-09-28T20:50:48.284Z,87.64
2022-09-28T20:53:19.530Z,87.74
2022-09-28T20:55:58.115Z,87.90
2022-09-28T20:58:29.852Z,88.46
2022-09-28T21:01:11.925Z,88.04
2022-09-28T21:03:51.511Z,88.29
2022-09-28T21:06:31.055Z,88.21
2022-09-28T21:09:03.907Z,88.39
2022-09-28T21:11:40.056Z,88.81
2022-09-28T21:14:11.525Z,88.61
2022-09-28T21:16:42.749Z,88.90
2022-09-28T21:19:14.017Z,88.22
2022-09-28T21:21:45.417Z,88.45
2022-09-28T21:24:16.811Z,88.88
2022-09-28T21:26:48.282Z,88.62
2022-09-28T21:29:19.778Z,88.52
2022-09-28T21:31:51.138Z,88.21
2022-09-28T21:34:22.392Z,88.00
2022-09-28T21:36:54.353Z,88.33
2022-09-28T21:39:26.122Z,88.46
2022-09-28T21:41:57.364Z,87.83
2022-09-28T21:44:28.607Z,87.89
2022-09-28T21:46:59.956Z,88.31
2022-09-28T21:49:31.201Z,88.65
2022-09-28T21:52:02.489Z,88.74
2022-09-28T21:54:37.149Z,88.73
2022-09-28T21:57:09.565Z,88.60
2022-09-28T21:59:40.899Z,88.22
2022-09-28T22:02:12.278Z,88.29
2022-09-28T22:04:43.553Z,88.17
2022-09-28T22:07:14.857Z,88.96
2022-09-28T22:09:48.529Z,89.05
2022-09-28T22:12:21.725Z,89.49
2022-09-28T22:14:52.974Z,89.04
2022-09-28T22:17:24.687Z,88.98
2022-09-28T22:19:55.985Z,89.01
2022-09-28T22:22:29.158Z,89.34
2022-09-28T22:25:00.977Z,89.54
2022-09-28T22:27:32.324Z,89.21
2022-09-28T22:30:03.939Z,88.72
2022-09-28T22:32:35.189Z,88.96
2022-09-28T22:35:07.064Z,89.24
2022-09-28T22:37:38.354Z,88.46
2022-09-28T22:40:12.605Z,88.86
2022-09-28T22:42:43.974Z,88.24
2022-09-28T22:45:15.220Z,88.69
2022-09-28T22:47:46.564Z,89.03
2022-09-28T22:50:17.928Z,88.82
2022-09-28T22:52:49.213Z,89.28
2022-09-28T22:55:20.457Z,88.72
2022-09-28T22:57:51.715Z,88.38
2022-09-28T23:00:22.948Z,89.16
2022-09-28T23:02:54.264Z,88.95
2022-09-28T23:05:25.558Z,88.66
2022-09-28T23:07:56.825Z,88.62
2022-09-28T23:10:28.182Z,88.76
2022-09-28T23:12:59.550Z,89.21
2022-09-28T23:15:30.851Z,89.10
2022-09-28T23:18:02.076Z,88.97
2022-09-28T23:20:33.349Z,88.47
2022-09-28T23:23:04.690Z,88.58
2022-09-28T23:25:36.018Z,89.18
2022-09-28T23:28:07.288Z,88.48
2022-09-28T23:30:39.170Z,88.92
2022-09-28T23:33:14.369Z,88.98
2022-09-28T23:35:46.216Z,88.89
2022-09-28T23:38:18.240Z,88.93
2022-09-28T23:40:49.673Z,89.22
2022-09-28T23:43:21.037Z,88.95
2022-09-28T23:45:52.465Z,89.07
2022-09-28T23:48:23.707Z,89.15
2022-09-28T23:50:55.003Z,88.49
2022-09-28T23:53:26.523Z,89.63
2022-09-28T23:55:57.880Z,89.06
2022-09-28T23:58:29.199Z,89.12
